Frankenstein, Missouri
Current Conditions -  °F | °C
As of 6:05 AM on Sunday 25 Jan 2015 (Local Time) from KJEF Reporting Station
Overcast Overcast  
Wind Chill: 43°   Ceiling: 3000
Heat Index: 47°   Visibility: 10mi
Dew Point: 43°   Wind: 8mph
Humidity: 86%   Direction: 280°W
Pressure: 29.6"   Gusts: NA
Location:  38.559°N, 91.9214°W
Report Text: KJEF 251205Z 28007KT 10SM SCT024 OVC030 08/06 A2960 RMK AO2 T00830061
Loading
Personal Weather Stations






























Interactive Weather Map New forecast layout! Learn more

10-Day Weather Forecast

Advertisements
Track Severe Weather on mobile